createdAt,value
2022-08-28T00:01:09.282Z,4.90
2022-08-28T00:03:38.202Z,5.13
2022-08-28T00:06:07.011Z,4.93
2022-08-28T00:08:37.374Z,4.40
2022-08-28T00:11:06.110Z,4.43
2022-08-28T00:13:34.765Z,5.07
2022-08-28T00:16:03.239Z,4.53
2022-08-28T00:18:32.576Z,4.60
2022-08-28T00:21:01.638Z,5.00
2022-08-28T00:23:36.930Z,4.80
2022-08-28T00:26:32.896Z,4.37
2022-08-28T00:29:00.981Z,4.80
2022-08-28T00:31:29.546Z,4.77
2022-08-28T00:33:58.029Z,4.60
2022-08-28T00:36:27.066Z,4.87
2022-08-28T00:38:55.424Z,4.80
2022-08-28T00:41:27.532Z,4.87
2022-08-28T00:44:07.248Z,5.13
2022-08-28T00:46:35.690Z,5.10
2022-08-28T00:49:04.407Z,5.10
2022-08-28T00:51:50.937Z,5.03
2022-08-28T00:54:20.196Z,4.97
2022-08-28T00:56:50.456Z,5.07
2022-08-28T00:59:20.210Z,5.20
2022-08-28T01:01:49.773Z,5.40
2022-08-28T01:04:20.382Z,5.17
2022-08-28T01:06:51.386Z,5.67
2022-08-28T01:09:21.029Z,5.20
2022-08-28T01:11:51.601Z,4.97
2022-08-28T01:14:22.254Z,5.33
2022-08-28T01:16:53.061Z,5.40
2022-08-28T01:19:23.891Z,5.13
2022-08-28T01:21:55.358Z,5.07
2022-08-28T01:24:25.419Z,5.10
2022-08-28T01:26:53.848Z,5.13
2022-08-28T01:29:22.236Z,5.23
2022-08-28T01:31:50.644Z,5.00
2022-08-28T01:34:19.068Z,5.30
2022-08-28T01:36:47.788Z,5.20
2022-08-28T01:39:17.921Z,5.27
2022-08-28T01:41:48.750Z,4.90
2022-08-28T01:44:18.179Z,5.67
2022-08-28T01:46:47.518Z,5.37
2022-08-28T01:49:16.215Z,5.57
2022-08-28T01:51:44.926Z,5.33
2022-08-28T01:54:13.604Z,5.63
2022-08-28T01:56:43.019Z,4.97
2022-08-28T01:59:14.264Z,5.57
2022-08-28T02:01:43.765Z,5.07
2022-08-28T02:04:12.854Z,6.10
2022-08-28T02:06:41.327Z,5.80
2022-08-28T02:09:14.468Z,5.43
2022-08-28T02:11:44.383Z,5.40
2022-08-28T02:14:16.580Z,4.90
2022-08-28T02:16:45.144Z,5.33
2022-08-28T02:19:13.557Z,5.37
2022-08-28T02:21:42.534Z,5.50
2022-08-28T02:24:11.060Z,5.53
2022-08-28T02:26:39.500Z,5.50
2022-08-28T02:29:07.888Z,5.10
2022-08-28T02:31:37.722Z,5.30
2022-08-28T02:34:06.960Z,5.70
2022-08-28T02:36:35.381Z,5.67
2022-08-28T02:39:04.066Z,5.47
2022-08-28T02:41:32.499Z,5.40
2022-08-28T02:44:00.881Z,5.67
2022-08-28T02:46:29.416Z,5.90
2022-08-28T02:48:59.293Z,5.67
2022-08-28T02:51:27.774Z,5.70
2022-08-28T02:53:56.382Z,5.53
2022-08-28T02:56:24.793Z,6.13
2022-08-28T02:58:53.929Z,5.97
2022-08-28T03:01:25.337Z,5.80
2022-08-28T03:03:53.926Z,6.33
2022-08-28T03:06:23.962Z,5.87
2022-08-28T03:08:52.324Z,5.63
2022-08-28T03:11:20.935Z,6.07
2022-08-28T03:13:49.320Z,6.10
2022-08-28T03:16:18.008Z,5.77
2022-08-28T03:18:47.446Z,5.90
2022-08-28T03:21:15.852Z,5.53
2022-08-28T03:23:44.610Z,5.57
2022-08-28T03:26:14.314Z,5.63
2022-08-28T03:28:43.888Z,5.40
2022-08-28T03:31:14.727Z,5.37
2022-08-28T03:33:43.940Z,5.33
2022-08-28T03:36:14.762Z,6.00
2022-08-28T03:38:43.730Z,5.60
2022-08-28T03:41:14.634Z,6.17
2022-08-28T03:43:43.672Z,5.43
2022-08-28T03:46:15.622Z,5.50
2022-08-28T03:48:44.949Z,5.50
2022-08-28T03:51:14.479Z,5.87
2022-08-28T03:53:44.048Z,6.00
2022-08-28T03:56:15.016Z,5.23
2022-08-28T03:58:44.302Z,4.90
2022-08-28T04:01:12.848Z,5.53
2022-08-28T04:03:41.311Z,5.50
2022-08-28T04:06:09.743Z,4.83
2022-08-28T04:08:38.276Z,5.30
2022-08-28T04:11:07.254Z,4.77
2022-08-28T04:13:37.074Z,4.90
2022-08-28T04:16:07.902Z,4.80
2022-08-28T04:18:36.661Z,4.97
2022-08-28T04:21:08.033Z,4.50
2022-08-28T04:23:36.919Z,4.93
2022-08-28T04:26:06.057Z,5.27
2022-08-28T04:28:34.510Z,5.50
2022-08-28T04:31:04.866Z,4.87
2022-08-28T04:33:33.440Z,5.23
2022-08-28T04:36:03.935Z,5.17
2022-08-28T04:38:33.587Z,5.83
2022-08-28T04:41:05.654Z,5.27
2022-08-28T04:43:34.020Z,4.73
2022-08-28T04:46:07.280Z,4.73
2022-08-28T04:48:35.760Z,5.00
2022-08-28T04:51:06.737Z,4.87
2022-08-28T04:53:35.412Z,5.60
2022-08-28T04:56:04.795Z,4.87
2022-08-28T04:58:34.238Z,5.13
2022-08-28T05:01:08.803Z,4.60
2022-08-28T05:03:37.281Z,4.90
2022-08-28T05:06:06.261Z,5.37
2022-08-28T05:08:34.956Z,4.87
2022-08-28T05:11:11.699Z,4.63
2022-08-28T05:13:40.077Z,4.87
2022-08-28T05:16:10.171Z,4.70
2022-08-28T05:18:39.956Z,4.70
2022-08-28T05:21:14.534Z,4.83
2022-08-28T05:23:43.325Z,4.90
2022-08-28T05:26:13.296Z,4.87
2022-08-28T05:28:41.820Z,4.77
2022-08-28T05:31:12.396Z,4.30
2022-08-28T05:33:40.861Z,4.20
2022-08-28T05:36:10.119Z,4.43
2022-08-28T05:38:39.002Z,4.63
2022-08-28T05:41:07.541Z,4.73
2022-08-28T05:43:36.485Z,4.33
2022-08-28T05:46:07.637Z,4.07
2022-08-28T05:48:39.700Z,4.33
2022-08-28T05:51:08.510Z,4.40
2022-08-28T05:53:38.725Z,4.27
2022-08-28T05:56:07.426Z,3.63
2022-08-28T05:58:35.919Z,4.10
2022-08-28T06:01:08.225Z,4.00
2022-08-28T06:03:38.691Z,4.23
2022-08-28T06:06:07.317Z,4.10
2022-08-28T06:08:36.074Z,4.03
2022-08-28T06:11:05.351Z,4.17
2022-08-28T06:13:35.782Z,3.90
2022-08-28T06:16:06.577Z,3.73
2022-08-28T06:18:37.978Z,4.20
2022-08-28T06:21:06.459Z,3.97
2022-08-28T06:23:34.858Z,3.63
2022-08-28T06:26:03.322Z,3.60
2022-08-28T06:28:31.798Z,3.70
2022-08-28T06:31:23.407Z,3.60
2022-08-28T06:33:50.182Z,3.57
2022-08-28T06:36:18.840Z,3.43
2022-08-28T06:38:47.363Z,3.17
2022-08-28T06:41:16.154Z,3.73
2022-08-28T06:43:44.843Z,3.57
2022-08-28T06:46:13.506Z,3.20
2022-08-28T06:48:41.981Z,3.20
2022-08-28T06:51:13.199Z,3.50
2022-08-28T06:53:44.284Z,3.00
2022-08-28T06:56:25.623Z,2.83
2022-08-28T06:58:57.028Z,3.10
2022-08-28T07:01:29.206Z,3.10
2022-08-28T07:03:59.640Z,3.10
2022-08-28T07:06:30.210Z,3.10
2022-08-28T07:08:59.828Z,3.00
2022-08-28T07:11:29.319Z,2.87
2022-08-28T07:13:58.631Z,2.97
2022-08-28T07:16:28.258Z,3.40
2022-08-28T07:18:57.228Z,2.27
2022-08-28T07:21:26.404Z,3.10
2022-08-28T07:23:56.946Z,3.05
2022-08-28T07:26:27.940Z,2.93
2022-08-28T07:29:09.875Z,2.93
2022-08-28T07:31:42.105Z,3.00
2022-08-28T07:34:13.105Z,2.92
2022-08-28T07:36:43.647Z,2.90
2022-08-28T07:39:15.211Z,2.58
2022-08-28T07:41:44.506Z,2.70
2022-08-28T07:44:36.265Z,2.70
2022-08-28T07:47:06.103Z,2.92
2022-08-28T07:49:40.991Z,2.78
2022-08-28T07:52:13.360Z,2.60
2022-08-28T07:54:47.610Z,2.60
2022-08-28T07:57:25.969Z,2.63
2022-08-28T07:59:54.484Z,2.75
2022-08-28T08:02:22.947Z,2.50
2022-08-28T08:04:51.487Z,2.60
2022-08-28T08:07:20.722Z,2.72
2022-08-28T08:09:50.480Z,2.85
2022-08-28T08:12:19.070Z,2.55
2022-08-28T08:14:49.613Z,2.50
2022-08-28T08:17:18.034Z,2.53
2022-08-28T08:19:46.407Z,2.72
2022-08-28T08:22:14.875Z,2.88
2022-08-28T08:24:43.273Z,2.70
2022-08-28T08:27:13.268Z,2.50
2022-08-28T08:29:41.725Z,2.53
2022-08-28T08:32:12.442Z,2.40
2022-08-28T08:34:41.511Z,2.83
2022-08-28T08:37:10.610Z,2.75
2022-08-28T08:39:39.169Z,2.53
2022-08-28T08:42:09.613Z,2.65
2022-08-28T08:44:41.611Z,2.65
2022-08-28T08:47:14.596Z,2.63
2022-08-28T08:49:45.449Z,3.10
2022-08-28T08:52:28.303Z,3.03
2022-08-28T08:55:06.075Z,2.75
2022-08-28T08:57:35.530Z,2.70
2022-08-28T09:00:07.122Z,2.65
2022-08-28T09:02:39.031Z,2.78
2022-08-28T09:05:08.739Z,2.67
2022-08-28T09:07:39.531Z,2.35
2022-08-28T09:10:11.049Z,2.53
2022-08-28T09:12:49.648Z,2.63
2022-08-28T09:15:24.727Z,2.80
2022-08-28T09:17:54.915Z,4.60
2022-08-28T09:20:32.850Z,2.30
2022-08-28T09:23:12.782Z,2.72
2022-08-28T09:25:50.924Z,2.55
2022-08-28T09:28:21.445Z,2.47
2022-08-28T09:30:56.782Z,2.38
2022-08-28T09:33:32.151Z,2.60
2022-08-28T09:36:14.075Z,2.85
2022-08-28T09:38:42.487Z,2.65
2022-08-28T09:41:30.350Z,2.53
2022-08-28T09:43:58.826Z,2.40
2022-08-28T09:46:31.205Z,2.95
2022-08-28T09:49:09.400Z,2.33
2022-08-28T09:51:39.418Z,2.33
2022-08-28T09:54:09.988Z,2.40
2022-08-28T09:56:39.994Z,2.45
2022-08-28T09:59:09.270Z,3.00
2022-08-28T10:01:45.413Z,2.70
2022-08-28T10:04:22.199Z,2.33
2022-08-28T10:06:53.384Z,2.75
2022-08-28T10:09:26.472Z,2.58
2022-08-28T10:11:57.977Z,2.45
2022-08-28T10:14:33.256Z,2.50
2022-08-28T10:17:08.303Z,2.40
2022-08-28T10:19:41.924Z,2.85
2022-08-28T10:22:19.524Z,2.33
2022-08-28T10:24:55.055Z,2.50
2022-08-28T10:27:30.483Z,2.67
2022-08-28T10:30:06.942Z,2.60
2022-08-28T10:32:52.930Z,2.30
2022-08-28T10:35:23.624Z,2.60
2022-08-28T10:37:58.501Z,2.80
2022-08-28T10:40:29.788Z,2.30
2022-08-28T10:43:02.093Z,2.50
2022-08-28T10:45:31.491Z,2.50
2022-08-28T10:48:02.957Z,2.60
2022-08-28T10:50:33.367Z,2.38
2022-08-28T10:53:04.467Z,2.45
2022-08-28T10:55:36.613Z,2.70
2022-08-28T10:58:24.312Z,2.42
2022-08-28T11:00:55.048Z,2.40
2022-08-28T11:03:35.128Z,2.38
2022-08-28T11:06:05.933Z,2.28
2022-08-28T11:08:35.688Z,2.15
2022-08-28T11:11:05.466Z,2.42
2022-08-28T11:13:46.547Z,2.20
2022-08-28T11:16:20.069Z,2.40
2022-08-28T11:19:01.977Z,2.33
2022-08-28T11:21:31.943Z,1.95
2022-08-28T11:24:03.328Z,2.35
2022-08-28T11:26:34.636Z,2.30
2022-08-28T11:29:04.207Z,2.10
2022-08-28T11:31:42.551Z,2.15
2022-08-28T11:34:32.568Z,2.15
2022-08-28T11:37:02.952Z,2.20
2022-08-28T11:39:31.615Z,2.10
2022-08-28T11:42:32.290Z,2.10
2022-08-28T11:45:01.874Z,2.30
2022-08-28T11:47:49.091Z,2.58
2022-08-28T11:50:23.934Z,2.33
2022-08-28T11:53:08.366Z,2.15
2022-08-28T11:55:46.364Z,2.30
2022-08-28T11:58:18.886Z,1.98
2022-08-28T12:00:52.879Z,2.30
2022-08-28T12:03:28.851Z,2.20
2022-08-28T12:05:59.266Z,2.20
2022-08-28T12:08:46.655Z,2.00
2022-08-28T12:11:35.954Z,2.00
2022-08-28T12:14:05.079Z,2.42
2022-08-28T12:16:55.791Z,2.25
2022-08-28T12:19:29.388Z,2.00
2022-08-28T12:21:59.552Z,2.28
2022-08-28T12:24:28.785Z,2.10
2022-08-28T12:26:58.338Z,2.17
2022-08-28T12:29:30.466Z,2.00
2022-08-28T12:32:18.712Z,2.13
2022-08-28T12:34:50.244Z,2.28
2022-08-28T12:37:26.677Z,1.90
2022-08-28T12:39:56.745Z,2.10
2022-08-28T12:42:27.135Z,1.92
2022-08-28T12:45:01.215Z,2.05
2022-08-28T12:47:29.687Z,2.13
2022-08-28T12:49:58.505Z,2.25
2022-08-28T12:52:28.333Z,2.47
2022-08-28T12:54:58.220Z,2.13
2022-08-28T12:57:26.714Z,2.13
2022-08-28T12:59:55.864Z,2.28
2022-08-28T13:02:27.137Z,2.40
2022-08-28T13:04:57.644Z,2.00
2022-08-28T13:07:31.091Z,2.22
2022-08-28T13:10:01.454Z,2.22
2022-08-28T13:12:55.155Z,2.20
2022-08-28T13:15:37.265Z,2.08
2022-08-28T13:18:05.859Z,2.17
2022-08-28T13:20:35.426Z,2.08
2022-08-28T13:23:06.245Z,2.00
2022-08-28T13:25:35.488Z,2.20
2022-08-28T13:28:17.748Z,2.38
2022-08-28T13:31:02.326Z,2.25
2022-08-28T13:33:47.763Z,1.92
2022-08-28T13:36:25.813Z,1.90
2022-08-28T13:39:00.531Z,1.92
2022-08-28T13:41:38.682Z,1.88
2022-08-28T13:44:14.792Z,1.85
2022-08-28T13:47:00.909Z,2.20
2022-08-28T13:49:34.385Z,2.00
2022-08-28T13:52:08.168Z,2.10
2022-08-28T13:54:51.393Z,1.85
2022-08-28T13:57:32.650Z,1.95
2022-08-28T14:00:17.804Z,1.90
2022-08-28T14:03:17.610Z,1.95
2022-08-28T14:05:57.015Z,1.83
2022-08-28T14:08:35.738Z,2.08
2022-08-28T14:11:13.198Z,1.90
2022-08-28T14:13:55.506Z,2.10
2022-08-28T14:16:24.778Z,2.25
2022-08-28T14:18:53.951Z,2.20
2022-08-28T14:21:26.072Z,1.98
2022-08-28T14:23:54.519Z,2.05
2022-08-28T14:26:24.280Z,1.92
2022-08-28T14:28:52.796Z,1.95
2022-08-28T14:31:21.255Z,2.08
2022-08-28T14:33:55.032Z,2.13
2022-08-28T14:36:24.687Z,1.95
2022-08-28T14:38:54.385Z,1.77
2022-08-28T14:41:24.518Z,2.20
2022-08-28T14:43:53.507Z,2.33
2022-08-28T14:46:22.891Z,2.10
2022-08-28T14:48:51.831Z,2.10
2022-08-28T14:51:20.592Z,1.92
2022-08-28T14:53:49.972Z,2.30
2022-08-28T14:56:18.377Z,2.00
2022-08-28T14:58:48.240Z,2.30
2022-08-28T15:01:23.472Z,2.03
2022-08-28T15:03:52.930Z,2.15
2022-08-28T15:06:21.376Z,1.75
2022-08-28T15:08:50.095Z,1.80
2022-08-28T15:11:20.023Z,2.15
2022-08-28T15:13:50.642Z,1.80
2022-08-28T15:16:20.338Z,2.03
2022-08-28T15:18:49.014Z,1.92
2022-08-28T15:21:18.229Z,1.80
2022-08-28T15:23:46.733Z,2.00
2022-08-28T15:26:16.067Z,1.83
2022-08-28T15:28:44.545Z,1.95
2022-08-28T15:31:15.405Z,1.77
2022-08-28T15:33:45.474Z,2.05
2022-08-28T15:36:14.056Z,1.70
2022-08-28T15:39:00.099Z,1.80
2022-08-28T15:41:29.405Z,2.03
2022-08-28T15:44:00.189Z,2.03
2022-08-28T15:46:31.505Z,2.20
2022-08-28T15:49:00.008Z,1.98
2022-08-28T15:51:29.475Z,2.10
2022-08-28T15:53:58.950Z,2.30
2022-08-28T15:56:27.823Z,2.10
2022-08-28T15:58:56.260Z,2.20
2022-08-28T16:01:24.739Z,2.55
2022-08-28T16:03:54.592Z,2.22
2022-08-28T16:06:24.032Z,1.90
2022-08-28T16:08:52.512Z,2.17
2022-08-28T16:11:24.856Z,2.30
2022-08-28T16:13:56.264Z,2.30
2022-08-28T16:16:25.563Z,2.25
2022-08-28T16:18:58.677Z,2.45
2022-08-28T16:21:28.144Z,2.28
2022-08-28T16:23:56.820Z,2.30
2022-08-28T16:26:25.610Z,2.15
2022-08-28T16:28:54.044Z,2.20
2022-08-28T16:31:22.821Z,2.50
2022-08-28T16:33:51.613Z,2.22
2022-08-28T16:36:23.705Z,2.10
2022-08-28T16:38:59.653Z,2.30
2022-08-28T16:41:32.579Z,2.45
2022-08-28T16:44:01.768Z,2.40
2022-08-28T16:46:30.673Z,2.63
2022-08-28T16:48:59.687Z,2.55
2022-08-28T16:51:29.852Z,2.28
2022-08-28T16:53:58.703Z,2.58
2022-08-28T16:56:27.165Z,2.30
2022-08-28T16:58:56.232Z,2.40
2022-08-28T17:01:25.451Z,2.40
2022-08-28T17:03:54.602Z,2.42
2022-08-28T17:06:24.473Z,2.25
2022-08-28T17:08:57.184Z,2.35
2022-08-28T17:11:26.324Z,2.50
2022-08-28T17:13:55.461Z,2.70
2022-08-28T17:16:25.381Z,2.47
2022-08-28T17:18:54.383Z,2.58
2022-08-28T17:21:40.741Z,2.60
2022-08-28T17:24:12.357Z,2.60
2022-08-28T17:26:41.438Z,2.95
2022-08-28T17:29:09.955Z,2.63
2022-08-28T17:31:38.730Z,2.97
2022-08-28T17:34:08.274Z,2.20
2022-08-28T17:36:37.407Z,2.03
2022-08-28T17:39:08.162Z,2.50
2022-08-28T17:41:37.921Z,2.78
2022-08-28T17:44:06.685Z,2.75
2022-08-28T17:46:37.893Z,2.92
2022-08-28T17:49:07.302Z,2.63
2022-08-28T17:51:42.387Z,2.70
2022-08-28T17:54:18.811Z,2.72
2022-08-28T17:56:48.799Z,3.17
2022-08-28T17:59:17.655Z,2.97
2022-08-28T18:01:47.229Z,3.25
2022-08-28T18:04:21.629Z,3.28
2022-08-28T18:06:54.342Z,3.55
2022-08-28T18:09:23.652Z,3.22
2022-08-28T18:11:53.635Z,3.85
2022-08-28T18:14:22.186Z,3.45
2022-08-28T18:16:50.634Z,3.70
2022-08-28T18:19:19.201Z,3.80
2022-08-28T18:21:47.795Z,3.63
2022-08-28T18:24:16.840Z,4.00
2022-08-28T18:26:47.387Z,4.25
2022-08-28T18:29:17.303Z,4.20
2022-08-28T18:31:45.784Z,4.20
2022-08-28T18:34:17.508Z,3.80
2022-08-28T18:36:45.958Z,4.10
2022-08-28T18:39:15.095Z,4.60
2022-08-28T18:41:51.329Z,4.80
2022-08-28T18:44:24.157Z,4.53
2022-08-28T18:46:53.223Z,4.90
2022-08-28T18:49:21.791Z,4.72
2022-08-28T18:51:50.251Z,5.03
2022-08-28T18:54:23.199Z,5.05
2022-08-28T18:56:59.599Z,4.63
2022-08-28T18:59:34.501Z,4.88
2022-08-28T19:02:03.556Z,4.70
2022-08-28T19:04:32.720Z,4.93
2022-08-28T19:07:01.114Z,4.93
2022-08-28T19:09:32.415Z,5.43
2022-08-28T19:12:02.777Z,4.53
2022-08-28T19:14:31.396Z,4.78
2022-08-28T19:17:01.534Z,4.80
2022-08-28T19:19:30.151Z,4.60
2022-08-28T19:21:59.083Z,4.80
2022-08-28T19:24:31.039Z,4.82
2022-08-28T19:26:59.421Z,4.75
2022-08-28T19:29:28.014Z,4.72
2022-08-28T19:31:56.929Z,4.38
2022-08-28T19:34:27.036Z,4.25
2022-08-28T19:36:55.407Z,4.22
2022-08-28T19:39:27.783Z,4.27
2022-08-28T19:41:56.729Z,4.32
2022-08-28T19:44:25.171Z,4.18
2022-08-28T19:46:53.974Z,4.07
2022-08-28T19:49:22.410Z,3.80
2022-08-28T19:51:52.535Z,4.00
2022-08-28T19:54:21.080Z,3.85
2022-08-28T19:56:49.735Z,4.07
2022-08-28T19:59:18.191Z,4.10
2022-08-28T20:01:47.289Z,4.30
2022-08-28T20:04:17.775Z,3.90
2022-08-28T20:06:46.836Z,3.70
2022-08-28T20:09:18.386Z,4.00
2022-08-28T20:11:47.286Z,3.40
2022-08-28T20:14:16.478Z,3.87
2022-08-28T20:16:46.190Z,4.00
2022-08-28T20:19:15.012Z,3.97
2022-08-28T20:21:44.773Z,3.73
2022-08-28T20:24:14.805Z,3.80
2022-08-28T20:26:44.563Z,4.20
2022-08-28T20:29:13.380Z,4.10
2022-08-28T20:31:42.710Z,4.30
2022-08-28T20:34:12.290Z,4.20
2022-08-28T20:36:40.668Z,4.30
2022-08-28T20:39:09.585Z,3.90
2022-08-28T20:41:38.486Z,4.00
2022-08-28T20:44:09.351Z,4.20
2022-08-28T20:46:41.382Z,4.40
2022-08-28T20:49:10.756Z,3.80
2022-08-28T20:51:56.416Z,3.80
2022-08-28T20:54:26.044Z,3.90
2022-08-28T20:56:55.050Z,3.67
2022-08-28T20:59:28.936Z,3.93
2022-08-28T21:02:08.620Z,3.70
2022-08-28T21:04:38.873Z,4.10
2022-08-28T21:07:07.558Z,4.40
2022-08-28T21:09:51.569Z,3.90
2022-08-28T21:12:24.799Z,3.73
2022-08-28T21:14:54.802Z,4.33
2022-08-28T21:17:29.991Z,3.87
2022-08-28T21:20:00.203Z,3.83
2022-08-28T21:22:28.996Z,3.70
2022-08-28T21:24:57.417Z,4.00
2022-08-28T21:27:25.801Z,4.00
2022-08-28T21:29:58.409Z,4.10
2022-08-28T21:32:26.915Z,4.30
2022-08-28T21:34:55.381Z,4.43
2022-08-28T21:37:24.118Z,3.97
2022-08-28T21:39:53.791Z,4.50
2022-08-28T21:42:25.304Z,4.00
2022-08-28T21:44:54.624Z,4.73
2022-08-28T21:47:24.855Z,4.60
2022-08-28T21:49:54.291Z,4.47
2022-08-28T21:52:24.141Z,4.53
2022-08-28T21:54:57.578Z,4.27
2022-08-28T21:57:25.960Z,5.00
2022-08-28T21:59:54.368Z,4.40
2022-08-28T22:02:24.415Z,4.07
2022-08-28T22:04:53.865Z,4.47
2022-08-28T22:07:22.524Z,4.47
2022-08-28T22:09:51.591Z,4.10
2022-08-28T22:12:20.015Z,4.17
2022-08-28T22:14:48.450Z,4.30
2022-08-28T22:17:16.837Z,4.00
2022-08-28T22:19:46.976Z,4.57
2022-08-28T22:22:32.901Z,4.33
2022-08-28T22:25:01.335Z,4.13
2022-08-28T22:27:31.876Z,4.30
2022-08-28T22:30:00.938Z,4.90
2022-08-28T22:32:29.454Z,4.67
2022-08-28T22:34:59.294Z,4.20
2022-08-28T22:37:27.842Z,4.80
2022-08-28T22:39:56.292Z,4.30
2022-08-28T22:42:24.723Z,4.53
2022-08-28T22:44:53.139Z,4.00
2022-08-28T22:47:21.548Z,4.13
2022-08-28T22:49:50.047Z,4.30
2022-08-28T22:52:19.803Z,4.47
2022-08-28T22:54:52.293Z,4.00
2022-08-28T22:57:21.810Z,4.43
2022-08-28T22:59:50.461Z,4.57
2022-08-28T23:02:19.617Z,4.30
2022-08-28T23:04:52.120Z,4.07
2022-08-28T23:07:22.339Z,4.60
2022-08-28T23:09:50.753Z,4.60
2022-08-28T23:12:19.430Z,4.50
2022-08-28T23:14:48.815Z,4.20
2022-08-28T23:17:17.949Z,4.27
2022-08-28T23:19:47.818Z,4.40
2022-08-28T23:22:16.607Z,4.27
2022-08-28T23:24:47.374Z,4.57
2022-08-28T23:27:35.371Z,4.00
2022-08-28T23:30:04.354Z,4.73
2022-08-28T23:32:34.180Z,4.70
2022-08-28T23:35:02.688Z,4.23
2022-08-28T23:37:35.789Z,4.10
2022-08-28T23:40:06.859Z,4.23
2022-08-28T23:42:35.457Z,5.03
2022-08-28T23:45:05.062Z,4.50
2022-08-28T23:47:33.680Z,4.50
2022-08-28T23:50:10.183Z,4.50
2022-08-28T23:52:38.611Z,4.23
2022-08-28T23:55:09.317Z,4.70
2022-08-28T23:57:38.433Z,4.40
